Time;durP1;ratioP1;P1;durP2;ratioP2;P2;SDS_P1;SDS_P2;PMS_P1;PMS_P2;Temp;Humidity;BMP_temperature;BMP_pressure;BME280_temperature;BME280_humidity;BME280_pressure;Samples;Min_cycle;Max_cycle;Signal;HPM_P1;HPM_P2
2021/04/21 00:01:21;;;;;;;7.20;2.67;;;;;;;5.64;65.87;100867.50;115787;1209;62426;-77
2021/04/21 00:03:49;;;;;;;5.75;2.90;;;;;;;5.61;66.35;100859.89;115762;1209;62418;-77
2021/04/21 00:06:18;;;;;;;8.47;3.17;;;;;;;5.58;65.56;100865.42;115761;1209;63011;-77
2021/04/21 00:08:45;;;;;;;6.30;3.20;;;;;;;5.58;66.64;100861.96;115794;1209;62383;-77
2021/04/21 00:11:14;;;;;;;5.90;2.75;;;;;;;5.56;66.32;100859.46;115796;1209;62296;-77
2021/04/21 00:13:43;;;;;;;6.87;2.63;;;;;;;5.55;66.27;100852.55;115826;1209;63920;-77
2021/04/21 00:16:14;;;;;;;8.95;3.35;;;;;;;5.53;66.66;100861.56;115739;1209;62928;-78
2021/04/21 00:18:44;;;;;;;6.43;3.07;;;;;;;5.50;67.48;100857.38;115814;1209;62408;-78
2021/04/21 00:21:13;;;;;;;7.53;2.87;;;;;;;5.46;66.86;100863.88;115793;1209;62264;-77
2021/04/21 00:23:41;;;;;;;10.37;2.63;;;;;;;5.42;67.58;100851.97;115722;1209;62853;-77
2021/04/21 00:26:15;;;;;;;5.93;2.77;;;;;;;5.37;68.03;100856.82;115831;1212;62909;-77
2021/04/21 00:28:43;;;;;;;8.47;2.73;;;;;;;5.33;67.55;100852.80;115802;1209;62483;-78
2021/04/21 00:31:12;;;;;;;12.43;3.20;;;;;;;5.26;68.24;100857.78;115786;1209;62364;-78
2021/04/21 00:33:41;;;;;;;7.20;3.00;;;;;;;5.21;67.96;100854.74;115749;1209;62457;-78
2021/04/21 00:36:14;;;;;;;8.10;2.60;;;;;;;5.14;68.53;100854.42;115824;1209;62483;-77
2021/04/21 00:38:42;;;;;;;6.80;2.90;;;;;;;5.09;68.64;100861.91;115772;1211;62336;-77
2021/04/21 00:41:31;;;;;;;5.87;2.97;;;;;;;5.02;69.41;100855.53;115813;1212;64105;-77
2021/04/21 00:44:25;;;;;;;8.93;3.07;;;;;;;4.97;68.82;100858.54;115827;1209;62711;-76
2021/04/21 00:47:04;;;;;;;9.93;3.70;;;;;;;4.94;69.83;100863.26;115830;1209;62217;-77
2021/04/21 00:49:49;;;;;;;6.90;3.20;;;;;;;4.92;69.90;100860.75;115762;1209;62485;-78
2021/04/21 00:52:50;;;;;;;8.60;3.10;;;;;;;4.90;70.08;100865.31;115770;1209;62475;-77
2021/04/21 00:55:33;;;;;;;9.35;3.75;;;;;;;4.87;69.51;100862.96;115847;1212;62391;-78
2021/04/21 00:58:07;;;;;;;8.67;3.77;;;;;;;4.84;70.48;100869.30;115766;1209;62238;-78
2021/04/21 01:00:39;;;;;;;9.70;3.55;;;;;;;4.83;70.21;100869.45;115844;1212;62318;-77
2021/04/21 01:03:13;;;;;;;9.10;3.60;;;;;;;4.78;70.62;100864.59;115726;1209;63116;-77
2021/04/21 01:05:46;;;;;;;8.50;3.50;;;;;;;4.77;70.78;100870.80;115805;1209;62331;-77
2021/04/21 01:08:16;;;;;;;6.47;3.43;;;;;;;4.73;70.76;100860.69;115793;1209;63108;-78
2021/04/21 01:10:46;;;;;;;8.87;3.20;;;;;;;4.70;70.81;100861.80;115782;1209;63457;-77
2021/04/21 01:13:15;;;;;;;5.20;2.90;;;;;;;4.67;70.96;100857.61;115793;1209;62420;-78
2021/04/21 01:15:44;;;;;;;10.30;3.60;;;;;;;4.62;70.75;100859.81;115751;1209;62985;-78
2021/04/21 01:18:13;;;;;;;7.37;3.27;;;;;;;4.61;71.08;100857.31;115781;1209;62736;-77
2021/04/21 01:21:05;;;;;;;7.80;3.50;;;;;;;4.59;71.23;100853.98;115813;1209;62975;-77
2021/04/21 01:23:52;;;;;;;7.47;3.67;;;;;;;4.59;71.08;100856.61;115791;1209;62547;-77
2021/04/21 01:26:56;;;;;;;11.37;4.40;;;;;;;4.59;71.58;100861.88;115724;1209;63182;-78
2021/04/21 01:29:29;;;;;;;11.00;4.00;;;;;;;4.58;71.44;100849.71;115826;1209;63056;-77
2021/04/21 01:32:00;;;;;;;6.70;3.43;;;;;;;4.56;71.43;100849.01;115823;1209;62222;-78
2021/04/21 01:34:30;;;;;;;8.00;3.80;;;;;;;4.52;71.29;100853.69;115789;1209;62400;-78
2021/04/21 01:37:00;;;;;;;5.80;3.15;;;;;;;4.49;71.54;100849.53;115779;1209;62635;-78
2021/04/21 01:39:29;;;;;;;8.37;4.40;;;;;;;4.46;71.12;100855.06;115785;1209;62307;-78
2021/04/21 01:41:59;;;;;;;7.40;3.07;;;;;;;4.43;71.48;100852.69;115800;1209;62615;-77
2021/04/21 01:44:40;;;;;;;6.83;3.60;;;;;;;4.41;71.18;100851.16;115977;1209;62279;-79
2021/04/21 01:47:11;;;;;;;9.07;3.53;;;;;;;4.37;71.96;100850.58;115963;1209;62547;-77
2021/04/21 01:49:38;;;;;;;5.47;3.00;;;;;;;4.35;72.29;100854.30;115973;1209;62310;-77
2021/04/21 01:52:27;;;;;;;12.37;3.10;;;;;;;4.30;71.83;100846.82;115805;1209;63111;-78
2021/04/21 01:54:58;;;;;;;5.43;3.53;;;;;;;4.29;71.86;100850.39;115610;1209;62641;-78
2021/04/21 01:57:38;;;;;;;13.47;4.37;;;;;;;4.28;72.41;100854.00;115760;1209;62421;-77
2021/04/21 02:00:10;;;;;;;6.63;3.60;;;;;;;4.29;72.16;100853.02;115755;1209;62584;-78
2021/04/21 02:02:42;;;;;;;8.13;4.03;;;;;;;4.31;72.28;100855.52;115781;1209;62528;-78
2021/04/21 02:05:37;;;;;;;6.47;3.97;;;;;;;4.33;73.08;100848.34;115761;1209;62402;-77
2021/04/21 02:08:29;;;;;;;4.93;3.68;;;;;;;4.33;72.96;100849.17;115780;1209;62799;-77
2021/04/21 02:11:11;;;;;;;11.60;4.67;;;;;;;4.33;73.25;100846.55;115749;1209;62376;-77
2021/04/21 02:13:59;;;;;;;7.30;3.75;;;;;;;4.33;73.31;100849.17;115801;1209;62924;-77
2021/04/21 02:16:47;;;;;;;6.23;3.60;;;;;;;4.30;72.64;100844.20;115815;1209;62180;-77
2021/04/21 02:19:47;;;;;;;7.05;3.80;;;;;;;4.27;73.03;100849.69;115789;1209;63052;-78
2021/04/21 02:22:35;;;;;;;8.97;3.83;;;;;;;4.20;73.36;100846.75;115811;1209;62238;-76
2021/04/21 02:25:04;;;;;;;6.43;3.40;;;;;;;4.16;73.25;100841.90;115812;1209;62947;-77
2021/04/21 02:27:49;;;;;;;7.27;3.83;;;;;;;4.14;73.15;100841.20;115817;1209;62155;-78
2021/04/21 02:30:26;;;;;;;;;;;;;;;4.12;73.26;100836.06;115766;1216;62361;-77
2021/04/21 02:33:10;;;;;;;8.53;3.97;;;;;;;4.10;73.23;100837.98;115778;1209;63259;-77
2021/04/21 02:35:54;;;;;;;9.30;3.53;;;;;;;4.09;73.57;100837.16;115793;1209;63070;-77
2021/04/21 02:38:35;;;;;;;8.90;3.97;;;;;;;4.05;73.71;100843.63;115837;1209;62451;-77
2021/04/21 02:41:09;;;;;;;9.13;4.40;;;;;;;4.04;73.71;100839.36;115846;1209;62371;-78
2021/04/21 02:43:52;;;;;;;6.20;3.80;;;;;;;4.01;73.51;100842.22;115809;1209;62776;-78
2021/04/21 02:46:25;;;;;;;7.20;4.23;;;;;;;3.99;73.73;100841.52;115761;1209;63441;-78
2021/04/21 02:49:13;;;;;;;8.95;3.90;;;;;;;3.96;73.60;100836.53;115793;1209;62408;-77
2021/04/21 02:52:03;;;;;;;8.40;4.40;;;;;;;3.92;73.92;100845.63;115661;1209;62792;-78
2021/04/21 02:54:51;;;;;;;6.50;3.60;;;;;;;3.88;74.31;100844.22;115779;1209;62330;-77
2021/04/21 02:57:34;;;;;;;6.60;3.77;;;;;;;3.86;73.79;100848.76;115780;1209;62477;-76
2021/04/21 03:00:08;;;;;;;6.30;4.03;;;;;;;3.84;73.49;100837.55;115819;1209;63087;-78
2021/04/21 03:02:56;;;;;;;9.70;3.93;;;;;;;3.83;74.13;100844.60;115784;1209;62435;-77
2021/04/21 03:05:25;;;;;;;11.77;4.63;;;;;;;3.84;73.70;100842.80;115787;1209;62589;-78
2021/04/21 03:07:58;;;;;;;7.90;3.65;;;;;;;3.87;74.09;100842.56;115817;1209;62462;-78
2021/04/21 03:10:33;;;;;;;8.55;4.20;;;;;;;3.90;73.90;100850.17;115818;1209;62319;-78
2021/04/21 03:13:10;;;;;;;8.00;4.00;;;;;;;3.92;73.19;100844.80;115749;1209;62787;-77
2021/04/21 03:15:43;;;;;;;6.90;4.03;;;;;;;3.92;72.67;100844.80;115768;1209;62630;-78
2021/04/21 03:18:17;;;;;;;10.43;3.80;;;;;;;3.91;72.58;100838.73;115776;1209;62581;-77
2021/04/21 03:20:52;;;;;;;11.10;4.17;;;;;;;3.88;72.60;100833.72;115726;1209;62683;-77
2021/04/21 03:23:22;;;;;;;10.90;4.38;;;;;;;3.86;72.88;100830.39;115792;1209;62773;-77
2021/04/21 03:25:52;;;;;;;8.30;4.20;;;;;;;3.83;72.92;100826.23;115795;1209;62177;-77
2021/04/21 03:28:23;;;;;;;9.80;3.90;;;;;;;3.84;73.18;100832.30;115764;1209;62688;-76
2021/04/21 03:30:57;;;;;;;7.33;3.87;;;;;;;3.82;72.69;100829.80;115746;1209;62432;-77
2021/04/21 03:33:50;;;;;;;12.80;4.43;;;;;;;3.79;72.76;100837.94;115829;1209;62441;-76
2021/04/21 03:36:20;;;;;;;6.90;3.47;;;;;;;3.78;73.43;100840.69;115783;1209;62394;-77
2021/04/21 03:38:48;;;;;;;4.70;2.70;;;;;;;3.71;75.17;100852.66;115776;1211;63216;-77
2021/04/21 03:41:15;;;;;;;7.45;3.25;;;;;;;3.64;75.07;100845.29;115767;1209;62930;-77
2021/04/21 03:43:42;;;;;;;7.97;3.70;;;;;;;3.56;75.04;100841.64;115789;1209;63013;-76
2021/04/21 03:46:13;;;;;;;6.73;3.60;;;;;;;3.51;75.04;100841.16;115755;1209;64144;-77
2021/04/21 03:48:42;;;;;;;8.85;3.75;;;;;;;3.44;76.32;100835.59;115832;1209;62719;-77
2021/04/21 03:51:12;;;;;;;7.97;4.67;;;;;;;3.41;75.28;100825.36;115806;1208;64593;-77
2021/04/21 03:53:40;;;;;;;8.13;5.03;;;;;;;3.40;75.50;100832.41;115740;1209;62208;-76
2021/04/21 03:56:11;;;;;;;11.80;5.20;;;;;;;3.39;75.16;100822.03;115770;1209;63095;-77
2021/04/21 03:58:40;;;;;;;11.40;4.93;;;;;;;3.39;75.34;100827.27;115715;1209;62410;-76
2021/04/21 04:01:14;;;;;;;10.15;4.30;;;;;;;3.38;75.24;100830.84;115781;1209;62584;-76
2021/04/21 04:03:48;;;;;;;6.63;4.10;;;;;;;3.36;75.40;100822.27;115845;1211;63042;-77
2021/04/21 04:06:19;;;;;;;8.83;3.73;;;;;;;3.34;75.74;100825.03;115808;1209;62657;-77
2021/04/21 04:08:49;;;;;;;8.50;4.20;;;;;;;3.32;75.47;100826.13;115740;1209;62210;-77
2021/04/21 04:11:21;;;;;;;13.27;5.20;;;;;;;3.30;75.98;100828.86;115763;1209;62399;-77
2021/04/21 04:13:54;;;;;;;16.40;4.97;;;;;;;3.28;75.88;100829.95;115745;1209;64275;-77
2021/04/21 04:16:23;;;;;;;9.40;4.10;;;;;;;3.21;75.61;100819.09;115792;1209;62183;-77
2021/04/21 04:18:54;;;;;;;12.90;4.03;;;;;;;3.20;75.63;100823.52;115823;1209;63750;-78
2021/04/21 04:21:27;;;;;;;14.83;5.00;;;;;;;3.21;75.91;100833.06;115812;1209;63055;-79
2021/04/21 04:23:58;;;;;;;10.73;4.63;;;;;;;3.20;75.84;100834.00;115748;1209;62706;-77
2021/04/21 04:26:27;;;;;;;15.57;4.83;;;;;;;3.21;75.94;100835.69;115760;1209;62385;-79
2021/04/21 04:28:55;;;;;;;10.93;4.57;;;;;;;3.23;76.14;100841.64;115758;1209;63029;-78
2021/04/21 04:31:22;;;;;;;10.63;4.87;;;;;;;3.25;76.17;100841.49;115723;1209;62747;-78
2021/04/21 04:33:54;;;;;;;12.23;5.03;;;;;;;3.27;76.18;100844.82;115858;1209;62286;-77
2021/04/21 04:36:20;;;;;;;10.50;4.30;;;;;;;3.30;76.49;100835.90;115776;1209;63212;-77
2021/04/21 04:39:05;;;;;;;11.67;4.70;;;;;;;3.32;75.60;100841.85;115757;1209;62460;-77
2021/04/21 04:41:33;;;;;;;10.17;4.53;;;;;;;3.34;76.08;100843.39;115840;1209;62152;-77
2021/04/21 04:44:01;;;;;;;12.70;5.50;;;;;;;3.40;75.94;100844.66;115742;1209;62834;-78
2021/04/21 04:46:31;;;;;;;14.47;4.80;;;;;;;3.47;75.79;100845.84;115855;1209;62110;-78
2021/04/21 04:49:27;;;;;;;15.40;4.83;;;;;;;3.55;75.39;100842.58;116006;1209;62737;-78
2021/04/21 04:51:58;;;;;;;13.37;5.20;;;;;;;3.63;75.82;100846.27;115820;1209;62152;-77
2021/04/21 04:54:25;;;;;;;13.75;6.00;;;;;;;3.71;75.53;100850.03;115806;1209;63270;-77
2021/04/21 04:56:53;;;;;;;18.10;5.90;;;;;;;3.76;75.49;100846.08;115621;1209;63423;-77
2021/04/21 04:59:27;;;;;;;11.67;5.27;;;;;;;3.83;75.46;100851.65;115526;1209;64393;-76
2021/04/21 05:01:59;;;;;;;9.95;4.70;;;;;;;3.91;75.36;100853.62;115469;1209;62434;-77
2021/04/21 05:04:35;;;;;;;11.80;5.45;;;;;;;3.98;74.97;100850.37;115589;1209;63060;-77
2021/04/21 05:07:05;;;;;;;13.00;6.47;;;;;;;4.04;74.61;100852.48;115615;1209;62376;-78
2021/04/21 05:09:42;;;;;;;15.13;5.77;;;;;;;4.13;73.90;100857.92;115773;1209;64365;-77
2021/04/21 05:12:13;;;;;;;11.87;4.77;;;;;;;4.23;74.25;100848.28;115764;1209;62441;-76
2021/04/21 05:15:03;;;;;;;8.03;5.10;;;;;;;4.35;73.91;100855.13;115434;1209;64237;-75
2021/04/21 05:18:22;;;;;;;12.25;5.40;;;;;;;4.48;73.07;100855.77;115442;1209;62578;-76
2021/04/21 05:21:01;;;;;;;10.43;5.53;;;;;;;4.64;73.09;100862.33;115698;1209;62898;-81
2021/04/21 05:23:50;;;;;;;10.00;6.05;;;;;;;4.80;72.62;100862.67;115722;1209;62368;-80
2021/04/21 05:26:59;;;;;;;9.50;4.73;;;;;;;4.97;73.13;100869.05;115736;1209;62472;-79
2021/04/21 05:29:56;;;;;;;9.30;5.00;;;;;;;5.14;72.48;100864.95;115698;1209;62348;-79
2021/04/21 05:33:07;;;;;;;10.13;5.27;;;;;;;5.27;71.58;100860.28;115847;1209;62452;-77
2021/04/21 05:36:12;;;;;;;11.75;5.85;;;;;;;5.41;71.58;100866.11;114791;1209;64381;-76
2021/04/21 05:39:22;;;;;;;11.87;5.80;;;;;;;5.55;71.46;100859.59;115750;1209;62490;-77
2021/04/21 05:42:26;;;;;;;8.20;4.57;;;;;;;5.67;71.11;100853.23;115625;1209;64387;-77
2021/04/21 05:45:20;;;;;;;8.40;5.25;;;;;;;5.82;70.39;100857.13;115394;1209;62482;-77
2021/04/21 05:48:06;;;;;;;10.60;5.37;;;;;;;5.96;69.37;100852.41;115010;1209;64314;-76
2021/04/21 05:50:53;;;;;;;;;;;;;;;6.08;69.41;100854.75;114540;1216;65194;-76
2021/04/21 05:53:51;;;;;;;10.47;4.70;;;;;;;6.20;69.11;100851.94;115732;1209;64237;-76
2021/04/21 05:56:39;;;;;;;11.37;5.13;;;;;;;6.34;68.84;100856.77;115835;1209;62317;-77
2021/04/21 05:59:38;;;;;;;13.00;5.65;;;;;;;6.51;68.78;100856.00;115697;1209;62347;-76
2021/04/21 06:02:05;;;;;;;10.70;5.15;;;;;;;6.68;68.51;100861.50;115737;1209;62327;-76
2021/04/21 06:04:32;;;;;;;12.17;4.53;;;;;;;6.80;68.15;100857.70;115826;1208;64148;-76
2021/04/21 06:07:10;;;;;;;11.15;4.60;;;;;;;6.92;67.30;100853.87;115788;1209;62369;-77
2021/04/21 06:09:37;;;;;;;9.10;5.90;;;;;;;7.05;67.61;100852.70;115809;1209;62330;-77
2021/04/21 06:12:15;;;;;;;11.23;6.27;;;;;;;7.18;67.36;100858.44;115786;1209;62451;-77
2021/04/21 06:14:43;;;;;;;9.80;5.20;;;;;;;7.31;66.95;100861.56;115760;1209;62269;-76
2021/04/21 06:17:11;;;;;;;12.40;5.45;;;;;;;7.43;66.61;100866.61;115839;1209;63269;-76
2021/04/21 06:19:43;;;;;;;11.87;6.23;;;;;;;7.56;67.50;100869.70;115706;1208;63058;-76
2021/04/21 06:22:09;;;;;;;14.30;5.80;;;;;;;7.69;66.93;100867.53;115830;1209;62525;-76
2021/04/21 06:24:36;;;;;;;10.50;6.53;;;;;;;7.81;66.74;100865.47;115855;1209;62223;-75
2021/04/21 06:27:07;;;;;;;8.25;4.90;;;;;;;7.93;66.49;100868.72;115878;1209;62288;-76
2021/04/21 06:29:35;;;;;;;12.47;6.33;;;;;;;8.03;65.43;100864.14;115824;1209;63116;-76
2021/04/21 06:32:04;;;;;;;10.23;4.93;;;;;;;8.12;65.33;100865.88;115814;1209;62517;-77
2021/04/21 06:34:32;;;;;;;10.87;4.57;;;;;;;8.25;65.62;100872.58;115790;1208;62453;-77
2021/04/21 06:36:59;;;;;;;7.73;4.60;;;;;;;8.38;64.22;100868.52;115858;1208;62369;-76
2021/04/21 06:39:30;;;;;;;11.50;5.87;;;;;;;8.49;62.63;100874.56;115862;1209;62243;-76
2021/04/21 06:42:02;;;;;;;11.33;5.07;;;;;;;8.61;62.57;100869.81;115845;1209;63769;-75
2021/04/21 06:44:45;;;;;;;9.37;4.33;;;;;;;8.73;62.23;100879.13;115809;1209;62394;-76
2021/04/21 06:47:19;;;;;;;11.73;4.93;;;;;;;8.87;62.43;100878.54;115809;1209;62578;-75
2021/04/21 06:50:08;;;;;;;10.20;5.33;;;;;;;9.01;62.08;100885.05;115721;1209;62304;-76
2021/04/21 06:52:36;;;;;;;11.83;4.87;;;;;;;9.17;61.79;100884.27;115852;1208;63230;-76
2021/04/21 06:55:08;;;;;;;11.63;5.00;;;;;;;9.30;62.37;100884.63;115895;1209;62861;-76
2021/04/21 06:57:36;;;;;;;19.03;7.60;;;;;;;9.45;61.93;100884.00;115853;1209;62220;-77
2021/04/21 07:00:15;;;;;;;35.65;11.50;;;;;;;9.59;61.05;100884.19;115808;1209;62156;-77
2021/04/21 07:02:45;;;;;;;20.60;7.20;;;;;;;9.68;60.10;100886.84;115869;1209;62479;-77
2021/04/21 07:05:34;;;;;;;24.60;6.43;;;;;;;9.77;59.59;100888.50;115830;1209;62474;-77
2021/04/21 07:08:01;;;;;;;15.53;5.87;;;;;;;9.90;59.78;100870.31;115889;1208;63690;-77
2021/04/21 07:10:28;;;;;;;12.90;4.93;;;;;;;10.04;59.17;100876.75;115849;1209;62517;-77
2021/04/21 07:12:56;;;;;;;21.27;7.73;;;;;;;10.17;58.35;100881.53;115855;1209;62687;-75
2021/04/21 07:15:28;;;;;;;18.63;5.93;;;;;;;10.31;58.59;100882.72;115530;1208;62628;-74
2021/04/21 07:17:56;;;;;;;13.67;5.47;;;;;;;10.44;57.89;100883.02;115796;1208;62385;-76
2021/04/21 07:20:24;;;;;;;12.33;7.13;;;;;;;10.58;56.43;100882.33;115830;1209;63544;-76
2021/04/21 07:22:52;;;;;;;9.20;5.10;;;;;;;10.72;55.66;100880.77;115837;1209;62632;-75
2021/04/21 07:25:19;;;;;;;16.27;6.77;;;;;;;10.85;54.15;100888.19;115844;1209;62394;-76
2021/04/21 07:27:53;;;;;;;12.60;6.30;;;;;;;10.96;54.39;100871.88;115848;1209;62495;-76
2021/04/21 07:30:34;;;;;;;15.77;6.43;;;;;;;11.12;52.31;100880.78;115855;1209;62236;-75
2021/04/21 07:33:01;;;;;;;12.77;4.97;;;;;;;11.25;51.68;100870.41;115864;1209;63333;-76
2021/04/21 07:35:38;;;;;;;12.30;4.97;;;;;;;11.38;52.18;100881.28;115764;1209;62182;-78
2021/04/21 07:38:19;;;;;;;14.67;5.17;;;;;;;11.52;51.82;100878.89;115679;1209;62128;-77
2021/04/21 07:40:51;;;;;;;8.20;4.85;;;;;;;11.64;51.19;100880.11;115865;1208;62411;-78
2021/04/21 07:43:21;;;;;;;10.53;6.60;;;;;;;11.77;50.63;100883.02;115835;1209;62782;-78
2021/04/21 07:46:01;;;;;;;14.80;6.20;;;;;;;11.90;50.51;100873.63;115810;1209;63009;-79
2021/04/21 07:48:34;;;;;;;7.80;4.15;;;;;;;12.06;49.79;100883.31;115857;1209;62523;-79
2021/04/21 07:51:16;;;;;;;24.47;6.27;;;;;;;12.20;49.33;100880.68;115860;1208;62423;-78
2021/04/21 07:53:51;;;;;;;13.97;5.87;;;;;;;12.31;49.31;100881.25;115916;1209;62344;-75
2021/04/21 07:56:19;;;;;;;9.20;5.25;;;;;;;12.46;49.94;100884.75;115847;1208;62424;-75
2021/04/21 07:58:47;;;;;;;10.97;5.17;;;;;;;12.57;48.60;100881.62;115846;1209;62619;-75
2021/04/21 08:01:15;;;;;;;9.10;5.05;;;;;;;12.71;48.68;100879.13;115861;1209;62258;-75
2021/04/21 08:03:42;;;;;;;8.83;4.83;;;;;;;12.86;48.24;100887.95;115782;1209;62221;-74
2021/04/21 08:06:09;;;;;;;8.40;5.37;;;;;;;13.00;46.05;100887.09;115631;1207;62550;-74
2021/04/21 08:08:37;;;;;;;10.50;5.20;;;;;;;13.11;45.07;100883.15;115862;1209;62181;-74
2021/04/21 08:11:05;;;;;;;7.80;4.00;;;;;;;13.22;44.46;100890.65;115863;1209;64002;-74
2021/04/21 08:13:50;;;;;;;9.33;5.07;;;;;;;13.32;43.18;100885.03;115815;1209;63205;-74
2021/04/21 08:16:20;;;;;;;9.90;4.53;;;;;;;13.39;40.73;100877.13;115850;1209;62454;-77
2021/04/21 08:18:47;;;;;;;9.63;4.93;;;;;;;13.51;42.11;100888.92;115886;1209;62204;-75
2021/04/21 08:21:36;;;;;;;9.87;4.73;;;;;;;13.61;41.55;100877.96;115811;1209;62426;-75
2021/04/21 08:24:20;;;;;;;8.07;3.47;;;;;;;13.71;39.35;100881.14;115875;1209;62317;-76
2021/04/21 08:26:48;;;;;;;4.60;2.83;;;;;;;13.75;39.64;100881.56;115872;1209;62172;-77
2021/04/21 08:29:17;;;;;;;8.07;3.63;;;;;;;13.82;39.23;100885.13;115900;1209;62354;-76
2021/04/21 08:31:46;;;;;;;5.70;2.77;;;;;;;13.91;38.60;100885.81;115869;1209;62803;-76
2021/04/21 08:34:13;;;;;;;6.77;2.53;;;;;;;13.98;37.25;100889.35;115918;1207;62230;-76
2021/04/21 08:36:40;;;;;;;6.80;3.10;;;;;;;14.10;35.79;100887.81;115868;1208;62908;-76
2021/04/21 08:39:08;;;;;;;6.67;3.40;;;;;;;14.24;36.00;100884.23;115803;1209;62208;-76
2021/04/21 08:41:42;;;;;;;5.73;2.90;;;;;;;14.37;35.19;100880.84;115843;1208;62096;-74
2021/04/21 08:44:09;;;;;;;8.90;3.57;;;;;;;14.53;33.98;100882.36;115903;1209;62047;-75
2021/04/21 08:46:37;;;;;;;5.27;3.10;;;;;;;14.63;33.52;100882.05;115865;1209;62633;-74
2021/04/21 08:49:08;;;;;;;5.40;2.60;;;;;;;14.70;33.54;100879.41;115900;1208;62957;-74
2021/04/21 08:51:36;;;;;;;5.63;2.60;;;;;;;14.71;32.22;100886.41;115801;1209;62296;-74
2021/04/21 08:54:05;;;;;;;6.55;2.90;;;;;;;14.73;32.66;100887.02;115878;1208;62165;-74
2021/04/21 08:56:35;;;;;;;3.53;1.93;;;;;;;14.78;31.56;100896.09;115915;1209;62630;-74
2021/04/21 08:59:07;;;;;;;4.50;1.97;;;;;;;14.78;31.07;100889.93;115910;1209;62181;-74
2021/04/21 09:01:35;;;;;;;5.00;2.30;;;;;;;14.77;32.72;100893.61;115842;1209;62980;-74
2021/04/21 09:04:02;;;;;;;4.73;1.80;;;;;;;14.85;31.01;100888.10;115844;1209;62404;-74
2021/04/21 09:06:29;;;;;;;7.65;2.15;;;;;;;15.00;31.81;100894.16;115850;1208;62282;-74
2021/04/21 09:08:56;;;;;;;5.07;2.50;;;;;;;15.17;31.11;100899.13;115867;1209;62748;-74
2021/04/21 09:11:23;;;;;;;5.57;2.97;;;;;;;15.23;31.20;100895.66;115866;1208;62463;-74
2021/04/21 09:13:51;;;;;;;4.93;2.80;;;;;;;15.29;30.56;100889.52;115840;1209;63717;-74
2021/04/21 09:16:18;;;;;;;4.87;2.53;;;;;;;15.38;31.47;100893.64;115877;1209;62249;-73
2021/04/21 09:18:46;;;;;;;5.80;2.40;;;;;;;15.53;31.96;100888.13;115796;1209;62195;-74
2021/04/21 09:21:19;;;;;;;4.55;1.85;;;;;;;15.66;31.02;100882.81;115857;1209;62035;-73
2021/04/21 09:23:47;;;;;;;3.57;1.83;;;;;;;15.74;31.48;100889.02;115845;1209;62541;-73
2021/04/21 09:26:18;;;;;;;3.20;1.70;;;;;;;15.76;30.97;100884.29;115871;1209;62247;-73
2021/04/21 09:28:50;;;;;;;4.80;2.10;;;;;;;15.79;32.15;100882.04;115834;1209;62492;-73
2021/04/21 09:31:25;;;;;;;5.30;2.27;;;;;;;15.84;31.56;100890.26;115840;1209;62648;-73
2021/04/21 09:34:15;;;;;;;3.90;2.50;;;;;;;15.79;30.27;100890.06;115913;1209;62143;-73
2021/04/21 09:36:44;;;;;;;3.45;1.90;;;;;;;15.88;29.53;100883.47;115835;1207;62296;-76
2021/04/21 09:39:24;;;;;;;5.70;2.10;;;;;;;16.02;30.19;100886.14;115883;1209;63252;-76
2021/04/21 09:42:02;;;;;;;5.33;2.60;;;;;;;16.04;31.15;100884.90;115884;1208;62287;-75
2021/04/21 09:44:30;;;;;;;3.70;1.77;;;;;;;16.11;30.11;100890.28;115918;1208;62669;-75
2021/04/21 09:46:59;;;;;;;4.07;2.20;;;;;;;16.16;29.10;100874.41;115861;1209;62287;-74
2021/04/21 09:49:30;;;;;;;3.27;1.90;;;;;;;16.30;30.91;100877.91;115896;1209;62018;-74
2021/04/21 09:51:59;;;;;;;3.53;2.00;;;;;;;16.30;29.14;100878.72;115872;1209;62210;-74
2021/04/21 09:54:41;;;;;;;5.05;1.80;;;;;;;16.24;28.62;100887.58;115847;1209;62249;-75
2021/04/21 09:57:26;;;;;;;4.30;2.43;;;;;;;16.29;30.16;100884.28;115844;1209;62326;-74
2021/04/21 09:59:57;;;;;;;7.63;2.73;;;;;;;16.27;29.47;100879.13;115842;1208;62229;-74
2021/04/21 10:02:41;;;;;;;4.23;1.93;;;;;;;16.28;29.05;100893.35;115907;1209;62100;-74
2021/04/21 10:05:35;;;;;;;4.83;1.77;;;;;;;16.25;30.51;100881.18;115821;1209;63245;-74
2021/04/21 10:08:18;;;;;;;5.00;2.43;;;;;;;16.29;29.96;100879.73;115626;1209;63137;-73
2021/04/21 10:10:47;;;;;;;6.93;2.07;;;;;;;16.37;30.63;100881.39;115812;1209;62363;-73
2021/04/21 10:13:20;;;;;;;5.10;2.00;;;;;;;16.44;31.24;100874.15;115903;1209;62323;-73
2021/04/21 10:16:07;;;;;;;4.53;2.47;;;;;;;16.65;31.30;100875.75;115825;1209;62351;-74
2021/04/21 10:18:34;;;;;;;3.40;1.90;;;;;;;16.76;30.56;100882.31;115934;1209;62159;-73
2021/04/21 10:21:02;;;;;;;8.43;2.67;;;;;;;16.84;31.74;100881.30;115849;1209;62475;-74
2021/04/21 10:23:30;;;;;;;4.67;2.43;;;;;;;16.84;30.32;100875.94;115908;1209;62307;-74
2021/04/21 10:26:04;;;;;;;7.53;2.50;;;;;;;16.65;30.51;100885.65;115891;1209;62228;-74
2021/04/21 10:28:33;;;;;;;3.77;2.57;;;;;;;16.66;32.05;100882.77;115716;1209;62474;-74
2021/04/21 10:31:05;;;;;;;7.20;3.73;;;;;;;16.74;31.56;100878.20;115889;1209;63486;-74
2021/04/21 10:33:32;;;;;;;4.03;2.30;;;;;;;16.76;30.22;100876.14;115839;1209;62163;-78
2021/04/21 10:35:58;;;;;;;5.87;3.00;;;;;;;16.86;31.01;100876.55;115860;1209;62210;-78
2021/04/21 10:38:28;;;;;;;10.15;3.05;;;;;;;16.86;30.18;100882.72;115862;1209;64074;-78
2021/04/21 10:41:35;;;;;;;4.37;2.57;;;;;;;16.89;30.43;100881.47;115893;1209;62230;-78
2021/04/21 10:44:15;;;;;;;5.97;2.23;;;;;;;16.97;29.94;100881.23;115857;1209;62357;-78
2021/04/21 10:46:57;;;;;;;6.83;2.40;;;;;;;16.99;28.94;100873.81;115869;1209;62211;-78
2021/04/21 10:49:35;;;;;;;3.07;2.07;;;;;;;17.12;30.51;100870.24;115894;1209;62331;-77
2021/04/21 10:52:20;;;;;;;7.53;2.50;;;;;;;17.29;30.75;100887.47;115865;1209;62372;-77
2021/04/21 10:54:48;;;;;;;;;;;;;;;17.03;27.03;100880.39;115819;1216;62585;-77
2021/04/21 10:57:37;;;;;;;5.30;2.40;;;;;;;16.83;28.93;100898.39;115919;1209;62094;-78
2021/04/21 11:00:12;;;;;;;12.95;2.70;;;;;;;16.85;28.31;100881.09;115889;1209;62363;-78
2021/04/21 11:02:45;;;;;;;6.63;2.80;;;;;;;16.88;27.70;100877.16;115872;1209;62384;-78
2021/04/21 11:05:38;;;;;;;5.20;2.30;;;;;;;16.92;29.12;100886.42;115872;1208;62289;-78
2021/04/21 11:08:17;;;;;;;7.10;3.00;;;;;;;16.87;29.49;100894.25;115852;1207;62641;-77
2021/04/21 11:10:52;;;;;;;5.57;3.00;;;;;;;16.94;28.74;100873.63;115896;1209;62295;-78
2021/04/21 11:13:34;;;;;;;4.40;2.30;;;;;;;16.88;29.83;100877.16;115876;1209;62423;-77
2021/04/21 11:16:02;;;;;;;4.83;2.17;;;;;;;16.97;29.62;100865.16;115878;1208;62209;-78
2021/04/21 11:18:38;;;;;;;6.30;3.00;;;;;;;17.13;29.31;100877.27;115898;1209;62380;-78
2021/04/21 11:21:08;;;;;;;4.57;2.60;;;;;;;17.24;30.51;100887.30;115863;1209;62215;-76
2021/04/21 11:23:52;;;;;;;8.00;3.23;;;;;;;17.26;28.79;100869.14;115902;1209;62757;-79
2021/04/21 11:26:28;;;;;;;5.20;2.70;;;;;;;17.31;30.43;100873.86;115897;1209;62120;-79
2021/04/21 11:29:00;;;;;;;5.90;2.33;;;;;;;17.37;29.34;100889.09;115946;1209;62340;-79
2021/04/21 11:34:18;;;;;;;5.77;3.40;;;;;;;17.15;29.25;100879.70;115993;1209;62118;-81
2021/04/21 11:37:00;;;;;;;8.77;3.70;;;;;;;17.17;29.42;100861.55;116006;1209;62760;-79
2021/04/21 11:39:44;;;;;;;6.93;2.87;;;;;;;17.29;29.01;100865.20;115918;1209;62523;-79
2021/04/21 11:42:28;;;;;;;6.60;2.97;;;;;;;17.37;28.92;100867.63;115906;1209;62165;-78
2021/04/21 11:44:55;;;;;;;5.37;2.83;;;;;;;17.48;28.70;100869.62;115909;1209;62308;-78
2021/04/21 11:48:04;;;;;;;6.20;3.03;;;;;;;17.64;27.48;100867.47;115902;1209;62198;-81
2021/04/21 11:50:35;;;;;;;5.30;2.40;;;;;;;17.66;28.14;100860.00;115943;1209;63733;-80
2021/04/21 11:53:14;;;;;;;6.30;2.47;;;;;;;17.82;27.86;100859.50;115940;1208;64048;-81
2021/04/21 11:55:52;;;;;;;4.73;2.53;;;;;;;17.97;27.38;100877.14;115968;1208;62205;-81
2021/04/21 11:58:40;;;;;;;4.47;2.23;;;;;;;18.13;26.20;100860.49;115998;1209;62414;-81
2021/04/21 12:01:12;;;;;;;5.57;2.53;;;;;;;18.17;26.22;100867.06;115957;1209;62239;-80